Time;durP1;ratioP1;P1;durP2;ratioP2;P2;SDS_P1;SDS_P2;PMS_P1;PMS_P2;Temp;Humidity;BMP_temperature;BMP_pressure;BME280_temperature;BME280_humidity;BME280_pressure;Samples;Min_cycle;Max_cycle;Signal;HPM_P1;HPM_P2
2023/09/06 00:00:30;;;;;;;3.10;1.63;;;;;;;;;;1041291;28;20017;-74
2023/09/06 00:01:04;;;;;;;1.48;1.35;;;;;;;;;;1037803;28;20026;-74
2023/09/06 00:01:35;;;;;;;1.67;1.10;;;;;;;;;;1038063;28;20045;-75
2023/09/06 00:02:06;;;;;;;1.10;1.00;;;;;;;;;;1037797;28;20025;-74
2023/09/06 00:02:37;;;;;;;0.90;0.52;;;;;;;;;;1041773;28;20050;-74
2023/09/06 00:03:07;;;;;;;1.08;0.93;;;;;;;;;;1041792;28;20025;-74
2023/09/06 00:03:39;;;;;;;2.45;1.75;;;;;;;;;;1041672;28;20439;-74
2023/09/06 00:04:10;;;;;;;4.50;0.95;;;;;;;;;;1038526;28;20434;-74
2023/09/06 00:04:41;;;;;;;1.50;1.40;;;;;;;;;;1035556;28;20032;-74
2023/09/06 00:05:12;;;;;;;0.38;0.38;;;;;;;;;;1035670;28;20069;-74
2023/09/06 00:05:42;;;;;;;5.47;1.75;;;;;;;;;;1035978;28;20120;-74
2023/09/06 00:06:13;;;;;;;0.40;0.40;;;;;;;;;;1033461;28;20100;-74
2023/09/06 00:06:43;;;;;;;2.97;2.67;;;;;;;;;;1037819;28;20036;-74
2023/09/06 00:07:14;;;;;;;2.83;1.35;;;;;;;;;;1033483;28;20033;-74
2023/09/06 00:07:44;;;;;;;3.10;1.65;;;;;;;;;;1034435;28;20068;-74
2023/09/06 00:08:16;;;;;;;0.10;0.10;;;;;;;;;;1037402;28;20104;-74
2023/09/06 00:08:46;;;;;;;2.67;1.90;;;;;;;;;;1037840;28;20470;-74
2023/09/06 00:09:17;;;;;;;0.38;0.38;;;;;;;;;;1037817;28;20014;-74
2023/09/06 00:09:47;;;;;;;2.35;0.82;;;;;;;;;;1041639;28;20064;-74
2023/09/06 00:10:18;;;;;;;0.85;0.85;;;;;;;;;;1041701;28;20040;-74
2023/09/06 00:10:48;;;;;;;1.25;0.93;;;;;;;;;;1042327;28;20026;-74
2023/09/06 00:11:19;;;;;;;3.80;1.08;;;;;;;;;;1037802;28;20033;-74
2023/09/06 00:11:49;;;;;;;0.52;0.52;;;;;;;;;;1037372;28;20033;-74
2023/09/06 00:12:20;;;;;;;1.33;1.23;;;;;;;;;;1032952;28;20033;-74
2023/09/06 00:12:50;;;;;;;0.10;0.10;;;;;;;;;;1033692;28;20021;-74
2023/09/06 00:13:21;;;;;;;1.00;0.98;;;;;;;;;;1033603;28;20018;-74
2023/09/06 00:13:53;;;;;;;4.10;0.47;;;;;;;;;;1033422;28;20018;-74
2023/09/06 00:14:23;;;;;;;0.75;0.75;;;;;;;;;;1033327;28;20014;-74
2023/09/06 00:14:55;;;;;;;2.03;1.52;;;;;;;;;;1033962;28;20545;-74
2023/09/06 00:15:25;;;;;;;1.58;1.40;;;;;;;;;;1036380;28;20026;-74
2023/09/06 00:15:55;;;;;;;0.88;0.88;;;;;;;;;;1037724;28;20018;-74
2023/09/06 00:16:26;;;;;;;2.72;1.75;;;;;;;;;;1037544;28;20018;-74
2023/09/06 00:16:56;;;;;;;1.08;0.88;;;;;;;;;;1037634;28;20030;-74
2023/09/06 00:17:27;;;;;;;0.52;0.20;;;;;;;;;;1037486;28;20541;-74
2023/09/06 00:17:57;;;;;;;1.88;1.50;;;;;;;;;;1037588;28;20014;-74
2023/09/06 00:18:28;;;;;;;1.35;1.25;;;;;;;;;;1037852;28;20050;-74
2023/09/06 00:18:59;;;;;;;0.40;0.40;;;;;;;;;;1037911;28;20014;-74
2023/09/06 00:19:30;;;;;;;1.73;0.80;;;;;;;;;;1037523;28;20029;-74
2023/09/06 00:20:00;;;;;;;1.73;0.85;;;;;;;;;;1037078;28;20049;-74
2023/09/06 00:20:31;;;;;;;0.10;0.10;;;;;;;;;;1037928;28;20101;-74
2023/09/06 00:21:01;;;;;;;3.67;1.90;;;;;;;;;;1038868;28;20120;-74
2023/09/06 00:21:35;;;;;;;1.27;1.17;;;;;;;;;;1036825;28;20026;-74
2023/09/06 00:22:05;;;;;;;0.30;0.30;;;;;;;;;;1037697;28;20168;-74
2023/09/06 00:22:35;;;;;;;0.73;0.63;;;;;;;;;;1037906;28;20527;-74
2023/09/06 00:23:08;;;;;;;4.10;1.10;;;;;;;;;;1042124;28;20711;-74
2023/09/06 00:23:40;;;;;;;1.55;1.45;;;;;;;;;;1041685;28;20381;-74
2023/09/06 00:24:11;;;;;;;0.20;0.20;;;;;;;;;;1037227;28;20073;-74
2023/09/06 00:24:42;;;;;;;0.38;0.38;;;;;;;;;;1037550;28;20112;-75
2023/09/06 00:25:12;;;;;;;4.55;1.58;;;;;;;;;;1037722;28;20080;-74
2023/09/06 00:25:43;;;;;;;0.40;0.40;;;;;;;;;;1037451;28;20032;-75
2023/09/06 00:26:14;;;;;;;2.10;1.90;;;;;;;;;;1037335;28;20021;-74
2023/09/06 00:26:44;;;;;;;1.30;1.00;;;;;;;;;;1038008;28;20052;-74
2023/09/06 00:27:15;;;;;;;1.75;1.65;;;;;;;;;;1037263;28;20390;-74
2023/09/06 00:27:45;;;;;;;0.10;0.10;;;;;;;;;;1037025;28;20018;-75
2023/09/06 00:28:17;;;;;;;0.10;0.10;;;;;;;;;;1042682;28;20434;-75
2023/09/06 00:28:47;;;;;;;0.82;0.82;;;;;;;;;;1041487;28;20136;-75
2023/09/06 00:29:18;;;;;;;0.55;0.30;;;;;;;;;;1041766;28;20021;-74
2023/09/06 00:29:48;;;;;;;16.77;1.85;;;;;;;;;;1037805;28;20052;-75
2023/09/06 00:30:19;;;;;;;2.08;1.92;;;;;;;;;;1037483;28;20077;-74
2023/09/06 00:30:49;;;;;;;4.88;1.85;;;;;;;;;;1037944;28;20037;-75
2023/09/06 00:31:20;;;;;;;1.10;1.08;;;;;;;;;;1037575;28;20109;-75
2023/09/06 00:31:51;;;;;;;0.20;0.20;;;;;;;;;;1037448;28;20022;-75
2023/09/06 00:32:22;;;;;;;1.02;1.02;;;;;;;;;;1036907;28;20062;-74
2023/09/06 00:32:53;;;;;;;0.85;0.60;;;;;;;;;;1037537;28;20440;-75
2023/09/06 00:33:26;;;;;;;0.10;0.10;;;;;;;;;;1037561;28;20101;-75
2023/09/06 00:33:56;;;;;;;0.22;0.22;;;;;;;;;;1037180;28;20041;-75
2023/09/06 00:34:27;;;;;;;0.93;0.93;;;;;;;;;;1037717;28;20060;-75
2023/09/06 00:34:57;;;;;;;1.00;1.00;;;;;;;;;;1038215;28;20025;-75
2023/09/06 00:35:28;;;;;;;3.17;1.58;;;;;;;;;;1037624;28;20450;-74
2023/09/06 00:35:58;;;;;;;0.85;0.82;;;;;;;;;;1037339;28;20402;-75
2023/09/06 00:36:29;;;;;;;0.13;0.13;;;;;;;;;;1037584;28;20175;-74
2023/09/06 00:37:01;;;;;;;1.05;0.93;;;;;;;;;;1036925;28;20898;-74
2023/09/06 00:37:35;;;;;;;7.53;1.38;;;;;;;;;;1037818;28;20056;-75
2023/09/06 00:38:06;;;;;;;0.32;0.32;;;;;;;;;;1038321;28;20137;-74
2023/09/06 00:38:38;;;;;;;0.22;0.22;;;;;;;;;;1037750;28;20052;-74
2023/09/06 00:39:09;;;;;;;0.20;0.20;;;;;;;;;;1037352;28;20022;-75
2023/09/06 00:39:40;;;;;;;1.35;1.05;;;;;;;;;;1036620;28;20033;-75
2023/09/06 00:40:18;;;;;;;3.05;1.08;;;;;;;;;;1037336;28;20109;-75
2023/09/06 00:40:50;;;;;;;0.10;0.10;;;;;;;;;;1038608;28;20071;-75
2023/09/06 00:41:20;;;;;;;1.90;1.75;;;;;;;;;;1041145;28;20504;-75
2023/09/06 00:41:50;;;;;;;3.13;2.92;;;;;;;;;;1039190;28;20057;-75
2023/09/06 00:42:24;;;;;;;19.65;2.60;;;;;;;;;;1039454;28;20057;-75
2023/09/06 00:43:01;;;;;;;1.45;1.27;;;;;;;;;;1035403;28;20025;-75
2023/09/06 00:43:31;;;;;;;0.22;0.22;;;;;;;;;;1036362;28;20026;-75
2023/09/06 00:44:03;;;;;;;0.75;0.57;;;;;;;;;;1039420;28;20398;-75
2023/09/06 00:44:37;;;;;;;0.55;0.55;;;;;;;;;;1039185;28;20140;-74
2023/09/06 00:45:08;;;;;;;1.13;0.95;;;;;;;;;;1037921;28;20042;-75
2023/09/06 00:45:44;;;;;;;2.20;1.10;;;;;;;;;;1037816;28;20080;-75
2023/09/06 00:46:15;;;;;;;1.65;1.20;;;;;;;;;;1036964;28;20022;-74
2023/09/06 00:46:45;;;;;;;0.57;0.57;;;;;;;;;;1037938;28;20026;-75
2023/09/06 00:47:16;;;;;;;1.35;0.57;;;;;;;;;;1036655;28;20029;-74
2023/09/06 00:47:48;;;;;;;0.70;0.70;;;;;;;;;;1037667;28;20029;-74
2023/09/06 00:48:24;;;;;;;1.13;1.02;;;;;;;;;;1037714;28;20474;-75
2023/09/06 00:48:55;;;;;;;1.65;1.55;;;;;;;;;;1037796;28;20025;-74
2023/09/06 00:49:25;;;;;;;0.30;0.30;;;;;;;;;;1038453;28;20025;-74
2023/09/06 00:49:56;;;;;;;0.47;0.47;;;;;;;;;;1037829;28;20046;-74
2023/09/06 00:50:26;;;;;;;5.47;1.40;;;;;;;;;;1037810;28;20026;-75
2023/09/06 00:50:57;;;;;;;1.45;0.82;;;;;;;;;;1036433;28;20036;-75
2023/09/06 00:51:27;;;;;;;0.28;0.28;;;;;;;;;;1032928;28;20014;-74
2023/09/06 00:51:57;;;;;;;0.20;0.20;;;;;;;;;;1033527;28;20414;-74
2023/09/06 00:52:28;;;;;;;0.70;0.70;;;;;;;;;;1033313;28;20061;-74
2023/09/06 00:52:59;;;;;;;1.20;1.15;;;;;;;;;;1037642;28;20081;-74
2023/09/06 00:53:30;;;;;;;0.75;0.75;;;;;;;;;;1037737;28;20039;-74
2023/09/06 00:54:00;;;;;;;0.40;0.40;;;;;;;;;;1037609;28;20542;-74
2023/09/06 00:54:31;;;;;;;0.85;0.65;;;;;;;;;;1037291;28;20029;-75
2023/09/06 00:55:01;;;;;;;0.88;0.88;;;;;;;;;;1035357;28;20022;-74
2023/09/06 00:55:33;;;;;;;1.95;1.10;;;;;;;;;;1035273;28;20494;-75
2023/09/06 00:56:03;;;;;;;0.68;0.68;;;;;;;;;;1035279;28;20021;-75
2023/09/06 00:56:34;;;;;;;4.93;1.55;;;;;;;;;;1039491;28;20029;-74
2023/09/06 00:57:04;;;;;;;0.10;0.10;;;;;;;;;;1042149;28;20481;-75
2023/09/06 00:57:35;;;;;;;1.25;0.60;;;;;;;;;;1041420;28;20029;-75
2023/09/06 00:58:05;;;;;;;0.73;0.73;;;;;;;;;;1041275;28;20021;-74
2023/09/06 00:58:36;;;;;;;0.95;0.73;;;;;;;;;;1041411;28;20029;-74
2023/09/06 00:59:10;;;;;;;2.92;2.65;;;;;;;;;;1034820;28;20499;-75
2023/09/06 00:59:41;;;;;;;0.32;0.32;;;;;;;;;;1033632;28;20385;-74
2023/09/06 01:00:19;;;;;;;0.35;0.35;;;;;;;;;;1037220;28;20022;-74
2023/09/06 01:00:50;;;;;;;0.43;0.43;;;;;;;;;;1038673;28;20647;-74
2023/09/06 01:01:20;;;;;;;0.30;0.30;;;;;;;;;;1038471;28;20120;-75
2023/09/06 01:01:51;;;;;;;0.20;0.20;;;;;;;;;;1040520;28;20451;-75
2023/09/06 01:02:21;;;;;;;1.75;0.95;;;;;;;;;;1041392;28;20133;-74
2023/09/06 01:02:52;;;;;;;14.82;3.90;;;;;;;;;;1041518;28;20119;-74
2023/09/06 01:03:22;;;;;;;1.30;0.77;;;;;;;;;;1038433;28;20060;-74
2023/09/06 01:03:53;;;;;;;1.42;1.33;;;;;;;;;;1038759;28;20021;-74
2023/09/06 01:04:25;;;;;;;0.98;0.93;;;;;;;;;;1036679;28;20108;-74
2023/09/06 01:04:55;;;;;;;0.95;0.75;;;;;;;;;;1038074;28;20030;-74
2023/09/06 01:05:28;;;;;;;0.35;0.35;;;;;;;;;;1036490;28;20061;-74
2023/09/06 01:06:04;;;;;;;0.30;0.22;;;;;;;;;;1038392;28;20507;-74
2023/09/06 01:06:36;;;;;;;1.02;0.85;;;;;;;;;;1038423;28;20026;-73
2023/09/06 01:07:08;;;;;;;16.45;1.92;;;;;;;;;;1036313;28;20502;-74
2023/09/06 01:07:40;;;;;;;0.85;0.85;;;;;;;;;;1036808;28;20025;-74
2023/09/06 01:08:13;;;;;;;6.13;1.15;;;;;;;;;;1034917;28;20036;-74
2023/09/06 01:08:46;;;;;;;0.40;0.40;;;;;;;;;;1036171;28;20050;-74
2023/09/06 01:09:17;;;;;;;0.65;0.47;;;;;;;;;;1036543;28;20026;-74
2023/09/06 01:09:48;;;;;;;17.45;1.02;;;;;;;;;;1038211;28;20071;-74
2023/09/06 01:10:18;;;;;;;0.17;0.17;;;;;;;;;;1036389;28;20045;-74
2023/09/06 01:10:50;;;;;;;1.60;1.50;;;;;;;;;;1037152;28;20030;-74
2023/09/06 01:11:21;;;;;;;5.28;1.08;;;;;;;;;;1036225;28;20033;-74
2023/09/06 01:11:52;;;;;;;1.55;0.75;;;;;;;;;;1036135;28;20022;-74
2023/09/06 01:12:22;;;;;;;0.10;0.10;;;;;;;;;;1038313;28;20025;-74
2023/09/06 01:12:55;;;;;;;0.38;0.25;;;;;;;;;;1039953;28;20027;-74
2023/09/06 01:13:25;;;;;;;2.50;1.33;;;;;;;;;;1040077;28;20044;-74
2023/09/06 01:13:58;;;;;;;0.63;0.63;;;;;;;;;;1040780;28;20025;-74
2023/09/06 01:14:29;;;;;;;0.68;0.68;;;;;;;;;;1036427;28;20351;-74
2023/09/06 01:14:59;;;;;;;1.00;0.80;;;;;;;;;;1036792;28;20139;-74
2023/09/06 01:15:30;;;;;;;1.23;1.13;;;;;;;;;;1039387;28;20482;-74
2023/09/06 01:16:00;;;;;;;0.35;0.32;;;;;;;;;;1039696;28;20022;-74
2023/09/06 01:16:32;;;;;;;3.33;0.70;;;;;;;;;;1035444;28;20108;-74
2023/09/06 01:17:03;;;;;;;0.30;0.30;;;;;;;;;;1036870;28;20022;-74
2023/09/06 01:17:35;;;;;;;0.82;0.82;;;;;;;;;;1037323;28;20100;-74
2023/09/06 01:18:06;;;;;;;0.63;0.63;;;;;;;;;;1036234;28;20052;-74
2023/09/06 01:18:37;;;;;;;9.35;1.85;;;;;;;;;;1041926;28;20028;-74
2023/09/06 01:19:10;;;;;;;18.77;0.80;;;;;;;;;;1042138;28;20025;-74
2023/09/06 01:19:43;;;;;;;0.45;0.45;;;;;;;;;;1040296;28;20033;-74
2023/09/06 01:20:16;;;;;;;2.40;1.55;;;;;;;;;;1040126;28;20385;-74
2023/09/06 01:20:56;;;;;;;0.22;0.22;;;;;;;;;;1036892;28;20441;-74
2023/09/06 01:21:38;;;;;;;0.55;0.55;;;;;;;;;;1037637;28;20034;-74
2023/09/06 01:22:18;;;;;;;0.10;0.10;;;;;;;;;;1038604;28;20453;-74
2023/09/06 01:22:53;;;;;;;0.20;0.20;;;;;;;;;;1036190;28;20767;-74
2023/09/06 01:23:33;;;;;;;3.40;1.55;;;;;;;;;;1037761;28;20491;-73
2023/09/06 01:24:05;;;;;;;0.57;0.57;;;;;;;;;;1037761;28;20460;-73
2023/09/06 01:24:36;;;;;;;1.13;0.35;;;;;;;;;;1036262;28;20107;-73
2023/09/06 01:25:08;;;;;;;2.28;2.00;;;;;;;;;;1037720;28;20429;-73
2023/09/06 01:25:39;;;;;;;1.05;0.60;;;;;;;;;;1037408;28;20157;-72
2023/09/06 01:26:10;;;;;;;1.25;0.77;;;;;;;;;;1036935;28;20097;-72
2023/09/06 01:26:41;;;;;;;0.73;0.73;;;;;;;;;;1036410;28;20556;-72
2023/09/06 01:27:12;;;;;;;6.35;2.17;;;;;;;;;;1033328;28;20109;-73
2023/09/06 01:27:43;;;;;;;1.88;0.75;;;;;;;;;;1032560;28;20939;-75
2023/09/06 01:28:14;;;;;;;5.47;2.17;;;;;;;;;;1031227;28;20026;-73
2023/09/06 01:28:44;;;;;;;4.05;1.20;;;;;;;;;;1036482;28;20021;-74
2023/09/06 01:29:15;;;;;;;9.77;2.20;;;;;;;;;;1041378;28;20032;-72
2023/09/06 01:29:45;;;;;;;5.85;0.75;;;;;;;;;;1039261;28;20111;-72
2023/09/06 01:30:16;;;;;;;5.45;1.58;;;;;;;;;;1035876;28;20116;-72
2023/09/06 01:30:46;;;;;;;2.10;1.08;;;;;;;;;;1037677;28;20025;-72
2023/09/06 01:31:17;;;;;;;2.95;2.38;;;;;;;;;;1039681;28;20421;-74
2023/09/06 01:31:47;;;;;;;3.47;1.73;;;;;;;;;;1040990;28;20429;-74
2023/09/06 01:32:18;;;;;;;5.28;1.63;;;;;;;;;;1036401;28;20503;-74
2023/09/06 01:32:48;;;;;;;0.32;0.32;;;;;;;;;;1036543;28;20029;-74
2023/09/06 01:33:19;;;;;;;8.80;2.20;;;;;;;;;;1032820;28;20034;-74
2023/09/06 01:33:49;;;;;;;11.02;3.60;;;;;;;;;;1032051;28;20046;-74
2023/09/06 01:34:19;;;;;;;3.72;1.27;;;;;;;;;;1036851;28;20023;-74
2023/09/06 01:34:50;;;;;;;7.13;1.75;;;;;;;;;;1035246;28;20060;-74
2023/09/06 01:35:20;;;;;;;1.70;1.60;;;;;;;;;;1036613;28;20041;-74
2023/09/06 01:35:51;;;;;;;9.15;2.88;;;;;;;;;;1036767;28;20106;-74
2023/09/06 01:36:21;;;;;;;3.75;2.20;;;;;;;;;;1037641;28;20117;-74
2023/09/06 01:36:52;;;;;;;7.28;3.22;;;;;;;;;;1036515;28;20029;-74
2023/09/06 01:37:22;;;;;;;4.15;2.60;;;;;;;;;;1036034;28;20029;-74
2023/09/06 01:37:53;;;;;;;12.27;4.15;;;;;;;;;;1036380;28;20030;-74
2023/09/06 01:38:23;;;;;;;13.90;3.83;;;;;;;;;;1036514;28;20037;-74
2023/09/06 01:38:54;;;;;;;7.13;3.85;;;;;;;;;;1035607;28;20454;-74
2023/09/06 01:39:24;;;;;;;13.38;3.15;;;;;;;;;;1036015;28;20040;-74
2023/09/06 01:39:55;;;;;;;4.95;2.38;;;;;;;;;;1037210;28;20026;-74
2023/09/06 01:40:28;;;;;;;5.90;1.90;;;;;;;;;;1035039;28;20014;-74
2023/09/06 01:40:59;;;;;;;1.50;1.00;;;;;;;;;;1037111;28;20121;-74
2023/09/06 01:41:29;;;;;;;5.28;2.45;;;;;;;;;;1034977;28;20091;-74
2023/09/06 01:42:00;;;;;;;10.63;1.65;;;;;;;;;;1035802;28;20467;-74
2023/09/06 01:42:30;;;;;;;4.80;3.08;;;;;;;;;;1037642;28;20554;-74
2023/09/06 01:43:01;;;;;;;4.03;3.33;;;;;;;;;;1037220;28;20159;-74
2023/09/06 01:43:31;;;;;;;10.73;2.50;;;;;;;;;;1036732;28;20029;-74
2023/09/06 01:44:02;;;;;;;4.85;3.53;;;;;;;;;;1036292;28;20052;-74
2023/09/06 01:44:32;;;;;;;2.80;1.60;;;;;;;;;;1036502;28;20028;-74
2023/09/06 01:45:03;;;;;;;2.30;2.00;;;;;;;;;;1035438;28;20501;-74
2023/09/06 01:45:35;;;;;;;2.13;1.25;;;;;;;;;;1036840;28;20443;-73
2023/09/06 01:46:05;;;;;;;1.75;1.63;;;;;;;;;;1037520;28;20025;-74
2023/09/06 01:46:36;;;;;;;22.27;3.10;;;;;;;;;;1038021;28;21201;-74
2023/09/06 01:47:06;;;;;;;4.72;1.63;;;;;;;;;;1036306;28;20120;-74
2023/09/06 01:47:37;;;;;;;7.00;3.58;;;;;;;;;;1037366;28;20026;-74
2023/09/06 01:48:07;;;;;;;14.20;4.68;;;;;;;;;;1035638;28;20057;-74
2023/09/06 01:48:39;;;;;;;5.38;2.08;;;;;;;;;;1036523;28;20555;-73
2023/09/06 01:49:09;;;;;;;2.03;1.58;;;;;;;;;;1036186;28;20509;-74
2023/09/06 01:49:40;;;;;;;3.78;2.20;;;;;;;;;;1037649;28;20109;-74
2023/09/06 01:50:11;;;;;;;1.70;1.27;;;;;;;;;;1038357;28;20535;-74
2023/09/06 01:50:41;;;;;;;9.57;3.30;;;;;;;;;;1037986;28;20029;-74
2023/09/06 01:51:15;;;;;;;2.85;2.15;;;;;;;;;;1036966;28;20526;-74
2023/09/06 01:51:45;;;;;;;5.40;2.88;;;;;;;;;;1037126;28;20132;-74
2023/09/06 01:52:16;;;;;;;1.17;0.55;;;;;;;;;;1036687;28;20583;-74
2023/09/06 01:52:47;;;;;;;5.40;2.10;;;;;;;;;;1037277;28;20511;-73
2023/09/06 01:53:17;;;;;;;7.13;4.00;;;;;;;;;;1036132;28;20517;-74
2023/09/06 01:53:48;;;;;;;2.95;1.02;;;;;;;;;;1035289;28;20069;-74
2023/09/06 01:54:18;;;;;;;0.03;0.03;;;;;;;;;;1036255;28;20026;-74
2023/09/06 01:54:49;;;;;;;2.42;1.70;;;;;;;;;;1038105;28;20076;-74
2023/09/06 01:55:20;;;;;;;4.80;1.63;;;;;;;;;;1038265;28;20116;-74
2023/09/06 01:55:50;;;;;;;16.33;2.90;;;;;;;;;;1037449;28;20109;-74
2023/09/06 01:56:21;;;;;;;1.35;0.95;;;;;;;;;;1033716;28;20036;-74
2023/09/06 01:56:51;;;;;;;3.67;1.33;;;;;;;;;;1036738;28;20022;-74
2023/09/06 01:57:22;;;;;;;9.55;1.05;;;;;;;;;;1037382;28;20115;-74
2023/09/06 01:57:52;;;;;;;5.75;3.45;;;;;;;;;;1037028;28;20029;-74
2023/09/06 01:58:23;;;;;;;16.50;2.85;;;;;;;;;;1040951;28;20029;-74
2023/09/06 01:58:53;;;;;;;4.05;3.50;;;;;;;;;;1041410;28;20021;-74
2023/09/06 01:59:24;;;;;;;8.00;5.38;;;;;;;;;;1040663;28;20025;-74
2023/09/06 01:59:54;;;;;;;1.45;1.35;;;;;;;;;;1037275;28;20030;-74
2023/09/06 02:00:27;;;;;;;1.23;0.52;;;;;;;;;;1037077;28;20457;-74
2023/09/06 02:00:58;;;;;;;1.80;1.65;;;;;;;;;;1037284;28;20021;-74
2023/09/06 02:01:29;;;;;;;2.55;2.35;;;;;;;;;;1037691;28;20022;-74
2023/09/06 02:01:59;;;;;;;2.35;2.20;;;;;;;;;;1037726;28;20025;-74
2023/09/06 02:02:30;;;;;;;4.13;3.28;;;;;;;;;;1038813;28;20740;-74
2023/09/06 02:03:00;;;;;;;1.77;1.67;;;;;;;;;;1034224;28;20497;-74
2023/09/06 02:03:34;;;;;;;0.60;0.60;;;;;;;;;;1034785;28;20026;-74
2023/09/06 02:04:06;;;;;;;3.17;1.52;;;;;;;;;;1034179;28;20208;-74
2023/09/06 02:04:37;;;;;;;1.75;1.65;;;;;;;;;;1038700;28;20026;-74
2023/09/06 02:05:07;;;;;;;1.58;1.30;;;;;;;;;;1040772;28;20029;-74
2023/09/06 02:05:41;;;;;;;21.33;1.17;;;;;;;;;;1042198;28;20346;-74
2023/09/06 02:06:12;;;;;;;0.52;0.52;;;;;;;;;;1041068;28;20566;-74
2023/09/06 02:06:42;;;;;;;0.75;0.75;;;;;;;;;;1038920;28;20053;-74
2023/09/06 02:07:14;;;;;;;0.75;0.75;;;;;;;;;;1034803;28;20112;-74
2023/09/06 02:07:45;;;;;;;0.85;0.85;;;;;;;;;;1034644;28;20033;-74
2023/09/06 02:08:16;;;;;;;2.25;1.30;;;;;;;;;;1038549;28;20051;-74
2023/09/06 02:08:46;;;;;;;0.73;0.73;;;;;;;;;;1037593;28;21528;-74
2023/09/06 02:09:17;;;;;;;0.95;0.95;;;;;;;;;;1035994;28;20032;-73
2023/09/06 02:09:48;;;;;;;2.35;2.15;;;;;;;;;;1037071;28;20117;-74
2023/09/06 02:10:18;;;;;;;3.83;3.05;;;;;;;;;;1031777;28;20394;-74
2023/09/06 02:10:49;;;;;;;0.10;0.10;;;;;;;;;;1034632;28;20530;-74
2023/09/06 02:11:20;;;;;;;1.50;1.15;;;;;;;;;;1034799;28;20536;-74
2023/09/06 02:11:52;;;;;;;1.85;1.30;;;;;;;;;;1038087;28;20839;-74
2023/09/06 02:12:22;;;;;;;2.53;1.98;;;;;;;;;;1041193;28;20452;-74
2023/09/06 02:12:52;;;;;;;0.95;0.90;;;;;;;;;;1036890;28;20025;-73
2023/09/06 02:13:23;;;;;;;2.72;1.85;;;;;;;;;;1036074;28;20029;-74
2023/09/06 02:13:53;;;;;;;2.05;0.40;;;;;;;;;;1036978;28;20030;-74
2023/09/06 02:14:24;;;;;;;2.78;2.47;;;;;;;;;;1037253;28;20483;-74
2023/09/06 02:14:56;;;;;;;5.55;3.58;;;;;;;;;;1037503;28;20033;-74
2023/09/06 02:15:29;;;;;;;4.03;1.63;;;;;;;;;;1038164;28;20022;-74
2023/09/06 02:16:00;;;;;;;2.40;2.08;;;;;;;;;;1039772;28;20021;-74
2023/09/06 02:16:31;;;;;;;0.65;0.65;;;;;;;;;;1040987;28;20110;-74
2023/09/06 02:17:01;;;;;;;11.80;3.70;;;;;;;;;;1041983;28;20028;-74
2023/09/06 02:17:32;;;;;;;1.17;1.10;;;;;;;;;;1040538;28;20103;-74
2023/09/06 02:18:04;;;;;;;0.68;0.68;;;;;;;;;;1039299;28;20111;-74
2023/09/06 02:18:34;;;;;;;5.75;2.63;;;;;;;;;;1035608;28;20037;-74
2023/09/06 02:19:06;;;;;;;2.00;1.85;;;;;;;;;;1035754;28;20136;-74
2023/09/06 02:19:36;;;;;;;1.13;1.02;;;;;;;;;;1031314;28;20037;-74
2023/09/06 02:20:17;;;;;;;3.00;1.00;;;;;;;;;;1036349;28;20041;-74
2023/09/06 02:20:49;;;;;;;1.50;0.65;;;;;;;;;;1036365;28;20453;-73
2023/09/06 02:21:20;;;;;;;2.42;1.27;;;;;;;;;;1035427;28;20080;-74
2023/09/06 02:21:52;;;;;;;0.38;0.38;;;;;;;;;;1037719;28;20469;-74
2023/09/06 02:22:22;;;;;;;1.13;1.00;;;;;;;;;;1039202;28;20044;-74
2023/09/06 02:22:57;;;;;;;1.40;1.17;;;;;;;;;;1037491;28;20032;-74
2023/09/06 02:23:27;;;;;;;2.33;1.60;;;;;;;;;;1036790;28;20088;-73
2023/09/06 02:23:58;;;;;;;1.25;1.17;;;;;;;;;;1036255;28;20044;-73
2023/09/06 02:24:28;;;;;;;0.90;0.55;;;;;;;;;;1034137;28;20036;-73
2023/09/06 02:25:00;;;;;;;4.75;4.18;;;;;;;;;;1038344;28;20029;-73
2023/09/06 02:25:31;;;;;;;4.57;1.00;;;;;;;;;;1040678;28;20456;-75
2023/09/06 02:26:03;;;;;;;1.00;0.60;;;;;;;;;;1040124;28;20468;-73
2023/09/06 02:26:33;;;;;;;3.88;2.08;;;;;;;;;;1039430;28;20123;-73
2023/09/06 02:27:03;;;;;;;1.25;1.15;;;;;;;;;;1039361;28;20035;-74
2023/09/06 02:27:34;;;;;;;0.65;0.65;;;;;;;;;;1037465;28;20550;-74
2023/09/06 02:28:05;;;;;;;1.02;0.98;;;;;;;;;;1034077;28;20505;-73
2023/09/06 02:28:36;;;;;;;5.50;2.47;;;;;;;;;;1034585;28;20022;-72
2023/09/06 02:29:06;;;;;;;1.73;1.63;;;;;;;;;;1034042;28;20180;-73
2023/09/06 02:29:37;;;;;;;0.60;0.60;;;;;;;;;;1038983;28;20191;-73
2023/09/06 02:30:07;;;;;;;1.50;1.33;;;;;;;;;;1042440;28;20089;-73
2023/09/06 02:30:38;;;;;;;1.30;1.10;;;;;;;;;;1037292;28;20112;-74
2023/09/06 02:31:08;;;;;;;1.45;0.98;;;;;;;;;;1037683;28;20065;-73
2023/09/06 02:31:39;;;;;;;3.00;1.98;;;;;;;;;;1036812;28;20151;-73
2023/09/06 02:32:09;;;;;;;12.60;2.22;;;;;;;;;;1040028;28;20139;-73
2023/09/06 02:32:40;;;;;;;1.60;1.50;;;;;;;;;;1040015;28;20025;-73
2023/09/06 02:33:14;;;;;;;1.17;0.65;;;;;;;;;;1040658;28;20866;-73
2023/09/06 02:33:45;;;;;;;0.88;0.88;;;;;;;;;;1039517;28;20025;-73
2023/09/06 02:34:15;;;;;;;1.33;0.73;;;;;;;;;;1037294;28;20394;-73
2023/09/06 02:34:46;;;;;;;1.27;1.05;;;;;;;;;;1034939;28;20466;-72
2023/09/06 02:35:16;;;;;;;18.23;3.92;;;;;;;;;;1034782;28;20044;-72
2023/09/06 02:35:47;;;;;;;0.75;0.75;;;;;;;;;;1037065;28;20439;-72
2023/09/06 02:36:17;;;;;;;0.93;0.70;;;;;;;;;;1034289;28;20352;-72
2023/09/06 02:36:48;;;;;;;0.90;0.75;;;;;;;;;;1036464;28;20021;-74
2023/09/06 02:37:18;;;;;;;5.47;2.38;;;;;;;;;;1033647;28;20477;-74
2023/09/06 02:37:48;;;;;;;2.67;1.10;;;;;;;;;;1031472;28;20379;-73
2023/09/06 02:38:19;;;;;;;0.90;0.57;;;;;;;;;;1032174;28;20591;-73
2023/09/06 02:38:49;;;;;;;2.47;2.13;;;;;;;;;;1039727;28;20111;-73
2023/09/06 02:39:20;;;;;;;2.10;1.92;;;;;;;;;;1041011;28;20394;-73
2023/09/06 02:39:53;;;;;;;0.52;0.52;;;;;;;;;;1041639;28;20087;-72
2023/09/06 02:40:23;;;;;;;4.30;3.05;;;;;;;;;;1039443;28;20151;-72
2023/09/06 02:40:54;;;;;;;1.20;0.73;;;;;;;;;;1035725;28;20060;-72
2023/09/06 02:41:24;;;;;;;1.90;0.98;;;;;;;;;;1036881;28;20057;-73
2023/09/06 02:41:55;;;;;;;0.35;0.35;;;;;;;;;;1037065;28;20056;-72
2023/09/06 02:42:26;;;;;;;0.22;0.22;;;;;;;;;;1037137;28;20059;-72
2023/09/06 02:42:57;;;;;;;6.35;2.60;;;;;;;;;;1037242;28;20109;-73
2023/09/06 02:43:28;;;;;;;3.50;0.82;;;;;;;;;;1033609;28;20097;-73
2023/09/06 02:43:58;;;;;;;0.30;0.30;;;;;;;;;;1034410;28;20863;-73
2023/09/06 02:44:29;;;;;;;0.80;0.80;;;;;;;;;;1034060;28;20037;-73
2023/09/06 02:44:59;;;;;;;0.85;0.85;;;;;;;;;;1032862;28;20045;-75
2023/09/06 02:45:36;;;;;;;3.47;2.03;;;;;;;;;;1035964;28;20409;-73
2023/09/06 02:46:07;;;;;;;2.83;1.52;;;;;;;;;;1027298;28;20035;-73
2023/09/06 02:46:38;;;;;;;0.20;0.20;;;;;;;;;;1029809;28;20213;-73
2023/09/06 02:47:11;;;;;;;0.90;0.85;;;;;;;;;;1033304;28;20074;-73
2023/09/06 02:47:48;;;;;;;1.17;0.47;;;;;;;;;;1035407;28;20346;-73
2023/09/06 02:48:18;;;;;;;0.85;0.50;;;;;;;;;;1035100;28;20390;-73
2023/09/06 02:48:50;;;;;;;2.08;1.17;;;;;;;;;;1036199;28;20052;-73
2023/09/06 02:49:20;;;;;;;2.58;2.38;;;;;;;;;;1036479;28;20037;-73
2023/09/06 02:49:55;;;;;;;2.63;1.73;;;;;;;;;;1036574;28;20013;-74
2023/09/06 02:50:28;;;;;;;5.40;2.33;;;;;;;;;;1034381;28;20029;-72
2023/09/06 02:50:59;;;;;;;0.98;0.98;;;;;;;;;;1034886;28;20036;-72
2023/09/06 02:51:30;;;;;;;1.20;1.10;;;;;;;;;;1039423;28;20550;-73
2023/09/06 02:52:01;;;;;;;1.58;1.48;;;;;;;;;;1039268;28;20531;-73
2023/09/06 02:52:35;;;;;;;0.68;0.68;;;;;;;;;;1042607;28;20472;-73
2023/09/06 02:53:15;;;;;;;0.47;0.47;;;;;;;;;;1038950;28;20084;-72
2023/09/06 02:53:45;;;;;;;1.27;1.17;;;;;;;;;;1039031;28;20531;-73
2023/09/06 02:54:17;;;;;;;1.08;1.05;;;;;;;;;;1036968;28;20060;-73
2023/09/06 02:54:49;;;;;;;0.90;0.90;;;;;;;;;;1035420;28;20387;-73
2023/09/06 02:55:20;;;;;;;2.67;1.95;;;;;;;;;;1036959;28;20520;-74
2023/09/06 02:55:53;;;;;;;2.70;1.30;;;;;;;;;;1036600;28;20175;-73
2023/09/06 02:56:23;;;;;;;2.40;1.45;;;;;;;;;;1036899;28;20052;-73
2023/09/06 02:56:57;;;;;;;1.38;1.08;;;;;;;;;;1036030;28;20034;-73
2023/09/06 02:57:28;;;;;;;1.45;1.33;;;;;;;;;;1028951;28;20018;-73
2023/09/06 02:57:59;;;;;;;0.80;0.80;;;;;;;;;;1026878;28;20025;-73
2023/09/06 02:58:37;;;;;;;1.20;1.15;;;;;;;;;;1034473;28;20030;-73
2023/09/06 02:59:07;;;;;;;1.35;1.05;;;;;;;;;;1035031;28;20025;-73
2023/09/06 02:59:38;;;;;;;1.73;1.00;;;;;;;;;;1037729;28;20052;-73
2023/09/06 03:00:24;;;;;;;0.65;0.65;;;;;;;;;;1036405;28;20035;-73
2023/09/06 03:00:58;;;;;;;2.50;2.25;;;;;;;;;;1033664;28;20096;-73
2023/09/06 03:01:30;;;;;;;0.88;0.80;;;;;;;;;;1037261;28;20155;-73
2023/09/06 03:02:01;;;;;;;0.68;0.68;;;;;;;;;;1034958;28;20029;-73
2023/09/06 03:02:33;;;;;;;3.38;1.20;;;;;;;;;;1034003;28;20155;-73
2023/09/06 03:03:07;;;;;;;3.15;1.67;;;;;;;;;;1031167;28;20081;-73
2023/09/06 03:03:37;;;;;;;4.95;4.55;;;;;;;;;;1036444;28;20022;-73
2023/09/06 03:04:08;;;;;;;0.95;0.73;;;;;;;;;;1031201;28;20061;-72
2023/09/06 03:04:40;;;;;;;2.60;1.63;;;;;;;;;;1032256;28;20452;-73
2023/09/06 03:05:17;;;;;;;1.38;1.05;;;;;;;;;;1035076;28;20115;-73
2023/09/06 03:05:47;;;;;;;0.80;0.80;;;;;;;;;;1034424;28;20025;-73
2023/09/06 03:06:18;;;;;;;0.98;0.93;;;;;;;;;;1035071;28;21615;-74
2023/09/06 03:06:49;;;;;;;1.10;0.52;;;;;;;;;;1035818;28;20041;-74
2023/09/06 03:07:19;;;;;;;0.35;0.35;;;;;;;;;;1032962;28;20044;-74
2023/09/06 03:07:50;;;;;;;2.70;0.98;;;;;;;;;;1029911;28;20033;-74
2023/09/06 03:08:20;;;;;;;4.22;1.05;;;;;;;;;;1032087;28;20026;-75